Clyde Park, MT

7:37 PM MDT on September 16, 2014 (GMT -0600)
Mission | Change Station
CLOSE
Current Station
Airport
Location: Livingston,
Elevation: 4656 ft
Nearby Weather Stations

Elev 4656 ft 45.70 °N, 110.44 °W | Updated 44 minutes ago

Mostly Cloudy
Mostly Cloudy
78 °F
Feels Like 78 °F
N
24
Wind Variable Wind from WSW
Gusts 29 mph

Today
High -- | Low -- °F
--% Chance of Precip.
Yesterday
High -- | Low -- °F
Precip. -- in
7:01 AM 7:30 PM
Last Quarter, 40% visible
Pressure 29.88 in
Visibility 10.0 miles
Clouds Few 12000 ft
Dew Point 36 °F
Humidity 22%
Rainfall 0.00 in
Snow Depth 0 in , 0 in , 0 in
UV 0 out of 12
Pollen 5.90 out of 12
Air Quality Not available.
Flu Activity Not available.
METAR KLVM 170053Z AUTO 24021G25KT 10SM FEW120 26/02 A2996 RMK AO2 PK WND 23028/0016 SLP116 T02560022

More Conditions Fewer Conditions

Pressure 29.88 in
Visibility 10.0 miles
Clouds Few 12000 ft
Dew Point 36 °F
Humidity 22%
Rainfall 0.00 in
Snow Depth 0 in , 0 in , 0 in
UV 0 out of 12
Pollen 5.90 out of 12
Air Quality Not available.
Flu Activity Not available.
METAR KLVM 170053Z AUTO 24021G25KT 10SM FEW120 26/02 A2996 RMK AO2 PK WND 23028/0016 SLP116 T02560022

More Conditions Fewer Conditions

10-Day Weather Forecast

Almanac

Astronomy

Sep. 16, 2014 Rise Set
Actual Time 7:01 AM MDT 7:30 PM MDT
Civil Twilight 6:31 AM MDT 8:00 PM MDT
Nautical Twilight 5:56 AM MDT 8:35 PM MDT
Astronomical Twilight 5:19 AM MDT 9:12 PM MDT
Moon 12:00 AM MDT (9/16) 3:10 PM MDT (9/16)
Length of Visible Light 13h 29m
Length of Day
12h 29m
Tomorrow will be 3m 11s shorter.
Last Quarter, 40% of the Moon is Illuminated
Today
Last Quarter
Sep 24
New
Oct 1
First Quarter
Oct 8
Full
Oct 15
Last Quarter

Today's Extremes

State Highs State Lows

Community

WunderPhotos

Upload Photos

1,753,943 photos uploaded!

Nearby

Snow Depth

Station Depth Elevation
Mule Creek 0 in 8300 ft
Emery Creek 0 in 4350 ft
Lone Mountain 0 in 8880 ft
Short Creek 0 in 7000 ft
Porcupine 0 in 6500 ft

Earthquake Activity

City Distance Mag. Time & Date
No recent earthquake activity has been reported nearby.
Minimum magnitude displayed is 2.5.

Coastal Water Temperatures

Place Temperature
No Stations Reporting

Nearby Weather Stations